Meteo Giornale » Osservazioni meteo Stati Uniti (USA) » Coupeville Outlying Landing Fld
ore: 12:46 - Osservazioni Meteo Coupeville Outlying Landing Fld
Lat. 48° 11' N Lon. 122° 37' W Alt. 60 metri s.l.m.
18 °C
Nuvoloso
Temp. 24 Ore
8 °C
22 °C
Nord
5.5 Km/h
Dew point 13 °C
Umidità 72 %
Visibilità 10 Km
Il sole sorge alle ore 06:28
Il sole tramonta alle ore 19:51
| Data e Ora | Cielo e Fenomeni | T °C | DP °C | Um. % | Pres. hPa | Vis. km | Vento km/h | |
|---|---|---|---|---|---|---|---|---|
| Oggi h: 12:46 | Nuvoloso | 18 | 13 | 72 | 1009 | 10 | N 5.5 | |
| Oggi h: 12:44 | Nuvoloso | 18 | 13 | 72 | 1009 | 10 | SE 9.3 | |
| Oggi h: 10:46 | Coperto | 17 | 13 | 77 | 1009 | 10 | S/SE 13 | |
| Oggi h: 09:59 | Molto Nuvoloso | 17 | 12 | 72 | 1009 | 10 | S 13 | |
| Oggi h: 09:46 | Nuvoloso | 17 | 13 | 77 | 1009 | 10 | S 9.3 | |
| Oggi h: 09:21 | Molto Nuvoloso | 16 | 13 | 82 | 1009 | 10 | S 7.4 | |
| Oggi h: 08:46 | Sereno | 14 | 12 | 87 | 1009 | 10 | S 7.4 | |
| Oggi h: 07:46 | Sereno | 13 | 12 | 93 | 1009 | 10 | N 0 | |
| Oggi h: 06:46 | Sereno | 12 | 11 | 93 | 1009 | 10 | N 5.5 | |
| Oggi h: 05:58 | Foschia | 10 | 9 | 93 | 1009 | 2 | N 0 | |
| Oggi h: 05:42 | Foschia | 9 | 9 | 100 | 1009 | 2 | N 0 | |
| Oggi h: 04:57 | Sereno | 8 | 8 | 100 | 1009 | 11 | N 0 | |
| Oggi h: 04:55 | Foschia | 8 | 8 | 100 | 1009 | 2 | N 0 | |
| Oggi h: 04:46 | Foschia | 9 | 9 | 100 | 1009 | 2 | N 0 | |
| Oggi h: 04:34 | Foschia | 9 | 9 | 100 | 1009 | 5 | N 0 | |
| Oggi h: 02:46 | Sereno | 11 | 9 | 87 | 1009 | 10 | N 5.5 | |
| Oggi h: 01:46 | Sereno | 9 | 9 | 100 | 1008 | 10 | N 0 | |
| Oggi h: 00:46 | Sereno | 10 | 9 | 93 | 1009 | 10 | N 0 | |
| Ieri h: 23:46 | Sereno | 11 | 10 | 93 | 1009 | 10 | N 0 | |
| Ieri h: 22:46 | Sereno | 13 | 10 | 81 | 1009 | 10 | N 0 | |
| Ieri h: 21:46 | Sereno | 14 | 10 | 76 | 1009 | 10 | SO 7.4 | |
| Ieri h: 20:46 | Sereno | 17 | 10 | 63 | 1009 | 10 | O 7.4 | |
| Ieri h: 19:46 | Sereno | 18 | 10 | 59 | 1008 | 10 | N 0 | |
| Ieri h: 18:46 | Sereno | 19 | 11 | 59 | 1009 | 10 | O/NO 11.1 | |
| Ieri h: 17:46 | Sereno | 21 | 11 | 52 | 1009 | 10 | O 14.8 | |
| Ieri h: 16:46 | Sereno | 22 | 11 | 49 | 1009 | 10 | N/NO 14.8 | |
| Ieri h: 15:46 | Sereno | 22 | 11 | 49 | 1010 | 10 | O/NO 14.8 | |
| Ieri h: 14:46 | Sereno | 21 | 11 | 52 | 1011 | 10 | O/NO 13 | |
| Ieri h: 13:46 | Sereno | 22 | 11 | 49 | 1011 | 10 | N 13 | |



